Melbourne, FL (32934)

11:03 PM EDT on September 14, 2014 (GMT -0400)
West Eau Gallie | Change Station
CLOSE
Current Station
Personal Weather Station
Location: Melbourne, FL
Elevation: 29 ft
Nearby Weather Stations

Elev 29 ft 28.13 °N, 80.68 °W | Updated 11 seconds ago

Partly Cloudy
Partly Cloudy
74.5 °F
Feels Like 72 °F
N
0.0
Wind Variable Wind from SE

Today
High -- | Low -- °F
--% Chance of Precip.
Yesterday
High -- | Low -- °F
Precip. -- in
7:07 AM 7:28 PM
Waning Gibbous, 60% visible
Pressure 30.16 in
Visibility 10.0 miles
Clouds Clear
Heat Index 72 °F
Dew Point 74 °F
Humidity 97%
Rainfall 0.00 in
Snow Depth Not available.
UV 0 out of 12
Pollen 7.60 out of 12
Air Quality Not available.
Flu Activity Not available.
METAR KMLB 150253Z 00000KT 10SM CLR 24/23 A3016 RMK AO2 SLP212 60000 T02440228 51009

More Conditions Fewer Conditions

Pressure 30.16 in
Visibility 10.0 miles
Clouds Clear
Heat Index 72 °F
Dew Point 74 °F
Humidity 97%
Rainfall 0.00 in
Snow Depth Not available.
UV 0 out of 12
Pollen 7.60 out of 12
Air Quality Not available.
Flu Activity Not available.
METAR KMLB 150253Z 00000KT 10SM CLR 24/23 A3016 RMK AO2 SLP212 60000 T02440228 51009

More Conditions Fewer Conditions

Nowcast | as of 8:00 PM EDT on September 14, 2014

lingering showers over east central Florida will weaken and dissipate for the most part... Through late evening...lingering scattered showers from east of Leesburg eastward across greater Sanford...Orlando and Cape Canaveral...and southward across and offshore the space and Treasure coasts will move slowly northward at 5 to 10 mph. The activity will weaken and dissipate for the most part...although the activity could linger a bit longer across Northern Lake...Seminole and Volusia counties. Additional details...including graphics are available online at: http://www.Srh.NOAA.Gov/mlb/blog.Php

×

10-Day Weather Forecast

Almanac

Astronomy

Sep. 14, 2014 Rise Set
Actual Time 7:07 AM EDT 7:28 PM EDT
Civil Twilight 6:43 AM EDT 7:52 PM EDT
Nautical Twilight 6:16 AM EDT 8:19 PM EDT
Astronomical Twilight 5:48 AM EDT 8:47 PM EDT
Moon 11:48 PM EDT (9/14) 12:43 PM EDT (9/14)
Length of Visible Light 13h 08m
Length of Day
12h 21m
Tomorrow will be 1m 39s shorter.
Waning Gibbous, 60% of the Moon is Illuminated
Today
Waning Gibbous
Sep 15
Last Quarter
Sep 24
New
Oct 1
First Quarter
Oct 8
Full

Today's Extremes

State Highs State Lows

Community

WunderPhotos

Upload Photos

1,753,388 photos uploaded!

Nearby

Snow Depth

Station Depth Elevation
No new snow has been reported.

Earthquake Activity

City Distance Mag. Time & Date
No recent earthquake activity has been reported nearby.
Minimum magnitude displayed is 2.5.

Coastal Water Temperatures

Place Temperature
Trident Pier, FL 86.0 °F
Fort Myers, FL 86.0 °F
Lake Worth, FL 84.9 °F

Nearby Weather Stations